sensor_id;sensor_type;location;lat;lon;timestamp;temperature;humidity
51765;DHT22;37835;53.256;6.456;2022-09-03T00:00:55;17.70;99.90
51765;DHT22;37835;53.256;6.456;2022-09-03T00:03:43;17.70;99.90
51765;DHT22;37835;53.256;6.456;2022-09-03T00:06:17;17.70;99.90
51765;DHT22;37835;53.256;6.456;2022-09-03T00:09:00;17.60;99.90
51765;DHT22;37835;53.256;6.456;2022-09-03T00:11:32;17.60;99.90
51765;DHT22;37835;53.256;6.456;2022-09-03T00:14:06;17.60;99.90
51765;DHT22;37835;53.256;6.456;2022-09-03T00:16:45;17.50;99.90
51765;DHT22;37835;53.256;6.456;2022-09-03T00:19:17;17.50;99.90
51765;DHT22;37835;53.256;6.456;2022-09-03T00:21:49;17.40;99.90
51765;DHT22;37835;53.256;6.456;2022-09-03T00:24:18;17.40;99.90
51765;DHT22;37835;53.256;6.456;2022-09-03T00:26:52;17.40;99.90
51765;DHT22;37835;53.256;6.456;2022-09-03T00:29:50;17.40;99.90
51765;DHT22;37835;53.256;6.456;2022-09-03T00:32:25;17.30;99.90
51765;DHT22;37835;53.256;6.456;2022-09-03T00:34:57;17.30;99.90
51765;DHT22;37835;53.256;6.456;2022-09-03T00:37:26;17.20;99.90
51765;DHT22;37835;53.256;6.456;2022-09-03T00:39:54;17.20;99.90
51765;DHT22;37835;53.256;6.456;2022-09-03T00:42:51;17.20;99.90
51765;DHT22;37835;53.256;6.456;2022-09-03T00:45:46;17.10;99.90
51765;DHT22;37835;53.256;6.456;2022-09-03T00:48:40;17.10;99.90
51765;DHT22;37835;53.256;6.456;2022-09-03T00:51:21;17.10;99.90
51765;DHT22;37835;53.256;6.456;2022-09-03T00:59:53;17.00;99.90
51765;DHT22;37835;53.256;6.456;2022-09-03T01:02:31;16.90;99.90
51765;DHT22;37835;53.256;6.456;2022-09-03T01:10:29;16.80;99.90
51765;DHT22;37835;53.256;6.456;2022-09-03T01:13:11;16.70;99.90
51765;DHT22;37835;53.256;6.456;2022-09-03T01:25:07;16.50;99.90
51765;DHT22;37835;53.256;6.456;2022-09-03T01:30:23;16.30;99.90
51765;DHT22;37835;53.256;6.456;2022-09-03T01:35:45;16.20;99.90
51765;DHT22;37835;53.256;6.456;2022-09-03T01:38:33;16.10;99.90
51765;DHT22;37835;53.256;6.456;2022-09-03T01:41:28;16.00;99.90
51765;DHT22;37835;53.256;6.456;2022-09-03T01:52:49;15.70;99.90
51765;DHT22;37835;53.256;6.456;2022-09-03T01:55:38;15.60;99.90
51765;DHT22;37835;53.256;6.456;2022-09-03T01:58:17;15.50;99.90
51765;DHT22;37835;53.256;6.456;2022-09-03T02:00:50;15.50;99.90
51765;DHT22;37835;53.256;6.456;2022-09-03T02:03:22;15.40;99.90
51765;DHT22;37835;53.256;6.456;2022-09-03T02:05:48;15.30;99.90
51765;DHT22;37835;53.256;6.456;2022-09-03T02:08:17;15.20;99.90
51765;DHT22;37835;53.256;6.456;2022-09-03T02:10:52;15.20;99.90
51765;DHT22;37835;53.256;6.456;2022-09-03T02:13:25;15.20;99.90
51765;DHT22;37835;53.256;6.456;2022-09-03T02:15:52;15.10;99.90
51765;DHT22;37835;53.256;6.456;2022-09-03T02:18:27;15.10;99.90
51765;DHT22;37835;53.256;6.456;2022-09-03T02:20:54;15.00;99.90
51765;DHT22;37835;53.256;6.456;2022-09-03T02:23:22;15.00;99.90
51765;DHT22;37835;53.256;6.456;2022-09-03T02:25:51;14.90;99.90
51765;DHT22;37835;53.256;6.456;2022-09-03T02:28:19;14.90;99.90
51765;DHT22;37835;53.256;6.456;2022-09-03T02:30:45;14.80;99.90
51765;DHT22;37835;53.256;6.456;2022-09-03T02:33:11;14.80;99.90
51765;DHT22;37835;53.256;6.456;2022-09-03T02:35:38;14.80;99.90
51765;DHT22;37835;53.256;6.456;2022-09-03T02:38:29;14.70;99.90
51765;DHT22;37835;53.256;6.456;2022-09-03T02:40:55;14.70;99.90
51765;DHT22;37835;53.256;6.456;2022-09-03T02:45:54;14.60;99.90
51765;DHT22;37835;53.256;6.456;2022-09-03T02:48:24;14.60;99.90
51765;DHT22;37835;53.256;6.456;2022-09-03T02:50:50;14.60;99.90
51765;DHT22;37835;53.256;6.456;2022-09-03T02:53:15;14.50;99.90
51765;DHT22;37835;53.256;6.456;2022-09-03T02:55:41;14.50;99.90
51765;DHT22;37835;53.256;6.456;2022-09-03T02:58:07;14.50;99.90
51765;DHT22;37835;53.256;6.456;2022-09-03T03:00:34;14.40;99.90
51765;DHT22;37835;53.256;6.456;2022-09-03T03:03:01;14.40;99.90
51765;DHT22;37835;53.256;6.456;2022-09-03T03:05:45;14.40;99.90
51765;DHT22;37835;53.256;6.456;2022-09-03T03:08:11;14.40;99.90
51765;DHT22;37835;53.256;6.456;2022-09-03T03:10:40;14.30;99.90
51765;DHT22;37835;53.256;6.456;2022-09-03T03:13:07;14.30;99.90
51765;DHT22;37835;53.256;6.456;2022-09-03T03:15:33;14.30;99.90
51765;DHT22;37835;53.256;6.456;2022-09-03T03:17:58;14.30;99.90
51765;DHT22;37835;53.256;6.456;2022-09-03T03:20:24;14.30;99.90
51765;DHT22;37835;53.256;6.456;2022-09-03T03:22:49;14.20;99.90
51765;DHT22;37835;53.256;6.456;2022-09-03T03:25:15;14.30;99.90
51765;DHT22;37835;53.256;6.456;2022-09-03T03:27:41;14.20;99.90
51765;DHT22;37835;53.256;6.456;2022-09-03T03:30:09;14.20;99.90
51765;DHT22;37835;53.256;6.456;2022-09-03T03:32:35;14.30;99.90
51765;DHT22;37835;53.256;6.456;2022-09-03T03:35:01;14.30;99.90
51765;DHT22;37835;53.256;6.456;2022-09-03T03:37:27;14.30;99.90
51765;DHT22;37835;53.256;6.456;2022-09-03T03:39:53;14.30;99.90
51765;DHT22;37835;53.256;6.456;2022-09-03T03:42:18;14.20;99.90
51765;DHT22;37835;53.256;6.456;2022-09-03T03:44:44;14.30;99.90
51765;DHT22;37835;53.256;6.456;2022-09-03T03:47:10;14.30;99.90
51765;DHT22;37835;53.256;6.456;2022-09-03T03:49:36;14.30;99.90
51765;DHT22;37835;53.256;6.456;2022-09-03T03:52:02;14.30;99.90
51765;DHT22;37835;53.256;6.456;2022-09-03T03:54:29;14.30;99.90
51765;DHT22;37835;53.256;6.456;2022-09-03T03:56:55;14.30;99.90
51765;DHT22;37835;53.256;6.456;2022-09-03T03:59:21;14.30;99.90
51765;DHT22;37835;53.256;6.456;2022-09-03T04:01:46;14.30;99.90
51765;DHT22;37835;53.256;6.456;2022-09-03T04:04:13;14.30;99.90
51765;DHT22;37835;53.256;6.456;2022-09-03T04:06:38;14.30;99.90
51765;DHT22;37835;53.256;6.456;2022-09-03T04:09:04;14.30;99.90
51765;DHT22;37835;53.256;6.456;2022-09-03T04:11:30;14.30;99.90
51765;DHT22;37835;53.256;6.456;2022-09-03T04:13:55;14.30;99.90
51765;DHT22;37835;53.256;6.456;2022-09-03T04:16:23;15.70;99.90
51765;DHT22;37835;53.256;6.456;2022-09-03T04:18:49;14.30;99.90
51765;DHT22;37835;53.256;6.456;2022-09-03T04:21:17;14.30;99.90
51765;DHT22;37835;53.256;6.456;2022-09-03T04:23:45;14.30;99.90
51765;DHT22;37835;53.256;6.456;2022-09-03T04:26:14;14.30;99.90
51765;DHT22;37835;53.256;6.456;2022-09-03T04:28:40;14.30;99.90
51765;DHT22;37835;53.256;6.456;2022-09-03T04:31:08;14.30;99.90
51765;DHT22;37835;53.256;6.456;2022-09-03T04:33:35;14.30;99.90
51765;DHT22;37835;53.256;6.456;2022-09-03T04:36:07;14.30;99.90
51765;DHT22;37835;53.256;6.456;2022-09-03T04:38:35;14.30;99.90
51765;DHT22;37835;53.256;6.456;2022-09-03T04:41:01;14.30;99.90
51765;DHT22;37835;53.256;6.456;2022-09-03T04:43:28;14.40;99.90
51765;DHT22;37835;53.256;6.456;2022-09-03T04:46:01;14.40;99.90
51765;DHT22;37835;53.256;6.456;2022-09-03T04:48:28;14.40;99.90
51765;DHT22;37835;53.256;6.456;2022-09-03T04:51:00;14.40;99.90
51765;DHT22;37835;53.256;6.456;2022-09-03T04:53:29;14.40;99.90
51765;DHT22;37835;53.256;6.456;2022-09-03T04:55:55;14.40;99.90
51765;DHT22;37835;53.256;6.456;2022-09-03T04:58:20;14.40;99.90
51765;DHT22;37835;53.256;6.456;2022-09-03T05:00:46;14.40;99.90
51765;DHT22;37835;53.256;6.456;2022-09-03T05:03:12;14.30;99.90
51765;DHT22;37835;53.256;6.456;2022-09-03T05:05:37;14.40;99.90
51765;DHT22;37835;53.256;6.456;2022-09-03T05:08:03;14.40;99.90
51765;DHT22;37835;53.256;6.456;2022-09-03T05:10:30;14.40;99.90
51765;DHT22;37835;53.256;6.456;2022-09-03T05:13:00;14.40;99.90
51765;DHT22;37835;53.256;6.456;2022-09-03T05:15:27;14.40;99.90
51765;DHT22;37835;53.256;6.456;2022-09-03T05:18:00;14.40;99.90
51765;DHT22;37835;53.256;6.456;2022-09-03T05:20:27;14.30;99.90
51765;DHT22;37835;53.256;6.456;2022-09-03T05:22:54;14.30;99.90
51765;DHT22;37835;53.256;6.456;2022-09-03T05:25:20;14.30;99.90
51765;DHT22;37835;53.256;6.456;2022-09-03T05:27:47;14.30;99.90
51765;DHT22;37835;53.256;6.456;2022-09-03T05:30:13;14.40;99.90
51765;DHT22;37835;53.256;6.456;2022-09-03T05:32:39;14.40;99.90
51765;DHT22;37835;53.256;6.456;2022-09-03T05:35:05;14.40;99.90
51765;DHT22;37835;53.256;6.456;2022-09-03T05:37:31;14.40;99.90
51765;DHT22;37835;53.256;6.456;2022-09-03T05:39:57;14.40;99.90
51765;DHT22;37835;53.256;6.456;2022-09-03T05:42:23;14.40;99.90
51765;DHT22;37835;53.256;6.456;2022-09-03T05:44:48;14.40;99.90
51765;DHT22;37835;53.256;6.456;2022-09-03T05:47:14;14.50;99.90
51765;DHT22;37835;53.256;6.456;2022-09-03T05:49:40;14.50;99.90
51765;DHT22;37835;53.256;6.456;2022-09-03T05:52:06;14.50;99.90
51765;DHT22;37835;53.256;6.456;2022-09-03T05:54:32;14.50;99.90
51765;DHT22;37835;53.256;6.456;2022-09-03T05:56:58;14.50;99.90
51765;DHT22;37835;53.256;6.456;2022-09-03T05:59:24;14.50;99.90
51765;DHT22;37835;53.256;6.456;2022-09-03T06:01:49;14.50;99.90
51765;DHT22;37835;53.256;6.456;2022-09-03T06:04:15;14.50;99.90
51765;DHT22;37835;53.256;6.456;2022-09-03T06:06:45;14.50;99.90
51765;DHT22;37835;53.256;6.456;2022-09-03T06:09:16;14.50;99.90
51765;DHT22;37835;53.256;6.456;2022-09-03T06:11:43;14.60;99.90
51765;DHT22;37835;53.256;6.456;2022-09-03T06:14:11;14.60;99.90
51765;DHT22;37835;53.256;6.456;2022-09-03T06:16:39;14.60;99.90
51765;DHT22;37835;53.256;6.456;2022-09-03T06:19:06;14.60;99.90
51765;DHT22;37835;53.256;6.456;2022-09-03T06:21:35;14.70;99.90
51765;DHT22;37835;53.256;6.456;2022-09-03T06:24:01;14.70;99.90
51765;DHT22;37835;53.256;6.456;2022-09-03T06:26:28;14.70;99.90
51765;DHT22;37835;53.256;6.456;2022-09-03T06:28:53;14.70;99.90
51765;DHT22;37835;53.256;6.456;2022-09-03T06:31:21;14.80;99.90
51765;DHT22;37835;53.256;6.456;2022-09-03T06:33:47;14.80;99.90
51765;DHT22;37835;53.256;6.456;2022-09-03T06:36:15;14.80;99.90
51765;DHT22;37835;53.256;6.456;2022-09-03T06:38:42;14.90;99.90
51765;DHT22;37835;53.256;6.456;2022-09-03T06:41:14;14.90;99.90
51765;DHT22;37835;53.256;6.456;2022-09-03T06:43:45;14.90;99.90
51765;DHT22;37835;53.256;6.456;2022-09-03T06:46:14;14.90;99.90
51765;DHT22;37835;53.256;6.456;2022-09-03T06:48:40;15.00;99.90
51765;DHT22;37835;53.256;6.456;2022-09-03T06:51:09;15.00;99.90
51765;DHT22;37835;53.256;6.456;2022-09-03T06:53:41;15.00;99.90
51765;DHT22;37835;53.256;6.456;2022-09-03T06:56:07;15.10;99.90
51765;DHT22;37835;53.256;6.456;2022-09-03T06:58:35;15.10;99.90
51765;DHT22;37835;53.256;6.456;2022-09-03T07:01:04;15.20;99.90
51765;DHT22;37835;53.256;6.456;2022-09-03T07:03:33;15.20;99.90
51765;DHT22;37835;53.256;6.456;2022-09-03T07:06:00;15.30;99.90
51765;DHT22;37835;53.256;6.456;2022-09-03T07:08:26;15.30;99.90
51765;DHT22;37835;53.256;6.456;2022-09-03T07:10:52;15.60;99.90
51765;DHT22;37835;53.256;6.456;2022-09-03T07:13:17;15.40;99.90
51765;DHT22;37835;53.256;6.456;2022-09-03T07:15:43;15.50;99.90
51765;DHT22;37835;53.256;6.456;2022-09-03T07:18:09;15.60;99.90
51765;DHT22;37835;53.256;6.456;2022-09-03T07:20:34;15.70;99.90
51765;DHT22;37835;53.256;6.456;2022-09-03T07:23:00;15.70;99.90
51765;DHT22;37835;53.256;6.456;2022-09-03T07:25:26;15.80;99.90
51765;DHT22;37835;53.256;6.456;2022-09-03T07:27:52;15.90;99.90
51765;DHT22;37835;53.256;6.456;2022-09-03T07:30:18;16.00;99.90
51765;DHT22;37835;53.256;6.456;2022-09-03T07:32:46;16.10;99.90
51765;DHT22;37835;53.256;6.456;2022-09-03T07:35:13;16.10;99.90
51765;DHT22;37835;53.256;6.456;2022-09-03T07:37:40;16.20;99.90
51765;DHT22;37835;53.256;6.456;2022-09-03T07:40:10;16.30;99.90
51765;DHT22;37835;53.256;6.456;2022-09-03T07:42:36;16.40;99.90
51765;DHT22;37835;53.256;6.456;2022-09-03T07:45:07;16.50;99.90
51765;DHT22;37835;53.256;6.456;2022-09-03T07:47:36;16.50;99.90
51765;DHT22;37835;53.256;6.456;2022-09-03T07:50:03;16.60;99.90
51765;DHT22;37835;53.256;6.456;2022-09-03T07:52:29;16.70;99.90
51765;DHT22;37835;53.256;6.456;2022-09-03T07:54:54;16.80;99.90
51765;DHT22;37835;53.256;6.456;2022-09-03T07:57:20;16.90;99.90
51765;DHT22;37835;53.256;6.456;2022-09-03T07:59:45;16.90;99.90
51765;DHT22;37835;53.256;6.456;2022-09-03T08:02:12;17.10;99.90
51765;DHT22;37835;53.256;6.456;2022-09-03T08:04:37;17.20;99.90
51765;DHT22;37835;53.256;6.456;2022-09-03T08:07:04;17.30;99.90
51765;DHT22;37835;53.256;6.456;2022-09-03T08:09:30;17.40;99.90
51765;DHT22;37835;53.256;6.456;2022-09-03T08:11:57;17.40;99.90
51765;DHT22;37835;53.256;6.456;2022-09-03T08:14:23;17.50;99.90
51765;DHT22;37835;53.256;6.456;2022-09-03T08:16:48;17.60;99.90
51765;DHT22;37835;53.256;6.456;2022-09-03T08:19:15;17.70;99.90
51765;DHT22;37835;53.256;6.456;2022-09-03T08:21:42;17.80;99.90
51765;DHT22;37835;53.256;6.456;2022-09-03T08:24:09;17.90;99.90
51765;DHT22;37835;53.256;6.456;2022-09-03T08:26:38;18.00;99.90
51765;DHT22;37835;53.256;6.456;2022-09-03T08:29:05;18.10;99.90
51765;DHT22;37835;53.256;6.456;2022-09-03T08:31:31;18.10;99.90
51765;DHT22;37835;53.256;6.456;2022-09-03T08:33:59;18.20;99.90
51765;DHT22;37835;53.256;6.456;2022-09-03T08:36:29;18.30;99.90
51765;DHT22;37835;53.256;6.456;2022-09-03T08:38:56;18.40;99.90
51765;DHT22;37835;53.256;6.456;2022-09-03T08:58:14;18.90;99.90
51765;DHT22;37835;53.256;6.456;2022-09-03T09:01:08;19.00;99.90
51765;DHT22;37835;53.256;6.456;2022-09-03T09:04:08;19.00;99.90
51765;DHT22;37835;53.256;6.456;2022-09-03T09:15:12;19.30;99.90
51765;DHT22;37835;53.256;6.456;2022-09-03T09:18:03;19.40;99.90
51765;DHT22;37835;53.256;6.456;2022-09-03T09:23:23;19.60;99.90
51765;DHT22;37835;53.256;6.456;2022-09-03T09:25:53;19.70;99.90
51765;DHT22;37835;53.256;6.456;2022-09-03T09:28:22;19.70;99.90
51765;DHT22;37835;53.256;6.456;2022-09-03T09:30:50;19.80;99.90
51765;DHT22;37835;53.256;6.456;2022-09-03T09:33:17;19.90;99.90
51765;DHT22;37835;53.256;6.456;2022-09-03T09:35:44;20.00;99.90
51765;DHT22;37835;53.256;6.456;2022-09-03T09:38:11;20.00;99.90
51765;DHT22;37835;53.256;6.456;2022-09-03T09:40:40;20.10;99.90
51765;DHT22;37835;53.256;6.456;2022-09-03T09:43:16;20.10;99.90
51765;DHT22;37835;53.256;6.456;2022-09-03T09:45:47;20.20;99.90
51765;DHT22;37835;53.256;6.456;2022-09-03T09:50:41;20.30;99.90
51765;DHT22;37835;53.256;6.456;2022-09-03T09:53:08;20.40;99.90
51765;DHT22;37835;53.256;6.456;2022-09-03T09:56:08;20.40;99.90
51765;DHT22;37835;53.256;6.456;2022-09-03T09:58:44;20.60;99.90
51765;DHT22;37835;53.256;6.456;2022-09-03T10:01:17;20.60;99.90
51765;DHT22;37835;53.256;6.456;2022-09-03T10:03:55;20.70;99.90
51765;DHT22;37835;53.256;6.456;2022-09-03T10:06:29;20.70;99.90
51765;DHT22;37835;53.256;6.456;2022-09-03T10:09:21;20.80;99.90
51765;DHT22;37835;53.256;6.456;2022-09-03T10:12:21;20.90;99.90
51765;DHT22;37835;53.256;6.456;2022-09-03T10:15:02;21.00;99.90
51765;DHT22;37835;53.256;6.456;2022-09-03T10:17:40;21.10;99.90
51765;DHT22;37835;53.256;6.456;2022-09-03T10:20:26;21.20;99.90
51765;DHT22;37835;53.256;6.456;2022-09-03T10:23:00;21.20;99.90
51765;DHT22;37835;53.256;6.456;2022-09-03T10:28:20;21.30;99.90
51765;DHT22;37835;53.256;6.456;2022-09-03T10:33:50;21.60;99.90
51765;DHT22;37835;53.256;6.456;2022-09-03T10:39:33;21.80;99.90
51765;DHT22;37835;53.256;6.456;2022-09-03T10:50:14;22.10;99.90
51765;DHT22;37835;53.256;6.456;2022-09-03T10:55:13;22.20;99.90
51765;DHT22;37835;53.256;6.456;2022-09-03T11:00:30;22.40;99.90
51765;DHT22;37835;53.256;6.456;2022-09-03T11:06:10;22.60;99.90
51765;DHT22;37835;53.256;6.456;2022-09-03T11:08:41;22.70;99.90
51765;DHT22;37835;53.256;6.456;2022-09-03T11:11:41;22.80;99.90
51765;DHT22;37835;53.256;6.456;2022-09-03T11:14:10;22.90;99.90
51765;DHT22;37835;53.256;6.456;2022-09-03T11:16:46;23.00;99.90
51765;DHT22;37835;53.256;6.456;2022-09-03T11:19:16;23.00;99.90
51765;DHT22;37835;53.256;6.456;2022-09-03T11:21:43;23.10;99.90
51765;DHT22;37835;53.256;6.456;2022-09-03T11:24:21;23.20;99.80
51765;DHT22;37835;53.256;6.456;2022-09-03T11:26:56;23.30;99.60
51765;DHT22;37835;53.256;6.456;2022-09-03T11:29:39;23.30;99.30
51765;DHT22;37835;53.256;6.456;2022-09-03T11:32:21;23.40;99.30
51765;DHT22;37835;53.256;6.456;2022-09-03T11:34:50;23.50;99.10
51765;DHT22;37835;53.256;6.456;2022-09-03T11:37:27;23.60;98.80
51765;DHT22;37835;53.256;6.456;2022-09-03T11:42:37;23.80;98.00
51765;DHT22;37835;53.256;6.456;2022-09-03T11:47:42;23.90;98.20
51765;DHT22;37835;53.256;6.456;2022-09-03T11:52:45;24.00;97.10
51765;DHT22;37835;53.256;6.456;2022-09-03T11:55:11;24.10;97.00
51765;DHT22;37835;53.256;6.456;2022-09-03T11:57:41;24.10;96.90
51765;DHT22;37835;53.256;6.456;2022-09-03T12:00:12;24.20;96.90
51765;DHT22;37835;53.256;6.456;2022-09-03T12:02:44;24.30;96.80
51765;DHT22;37835;53.256;6.456;2022-09-03T12:05:27;24.30;96.40
51765;DHT22;37835;53.256;6.456;2022-09-03T12:10:37;24.40;95.60
51765;DHT22;37835;53.256;6.456;2022-09-03T12:18:54;24.70;95.60
51765;DHT22;37835;53.256;6.456;2022-09-03T12:21:24;24.70;95.10
51765;DHT22;37835;53.256;6.456;2022-09-03T12:24:01;24.70;95.20
51765;DHT22;37835;53.256;6.456;2022-09-03T12:26:27;24.80;95.00
51765;DHT22;37835;53.256;6.456;2022-09-03T12:28:55;24.80;94.80
51765;DHT22;37835;53.256;6.456;2022-09-03T12:31:31;25.40;94.30
51765;DHT22;37835;53.256;6.456;2022-09-03T12:34:02;24.90;94.00
51765;DHT22;37835;53.256;6.456;2022-09-03T12:39:10;24.90;93.60
51765;DHT22;37835;53.256;6.456;2022-09-03T12:41:36;24.90;93.60
51765;DHT22;37835;53.256;6.456;2022-09-03T12:44:02;25.00;93.70
51765;DHT22;37835;53.256;6.456;2022-09-03T12:46:30;25.00;93.40
51765;DHT22;37835;53.256;6.456;2022-09-03T12:49:00;25.10;93.10
51765;DHT22;37835;53.256;6.456;2022-09-03T12:51:40;25.00;93.00
51765;DHT22;37835;53.256;6.456;2022-09-03T12:54:09;25.00;93.20
51765;DHT22;37835;53.256;6.456;2022-09-03T12:56:44;25.10;92.80
51765;DHT22;37835;53.256;6.456;2022-09-03T12:59:17;25.10;92.90
51765;DHT22;37835;53.256;6.456;2022-09-03T13:01:53;25.20;92.90
51765;DHT22;37835;53.256;6.456;2022-09-03T13:04:28;25.20;92.60
51765;DHT22;37835;53.256;6.456;2022-09-03T13:07:03;25.30;92.60
51765;DHT22;37835;53.256;6.456;2022-09-03T13:09:34;25.30;92.60
51765;DHT22;37835;53.256;6.456;2022-09-03T13:12:02;25.30;92.20
51765;DHT22;37835;53.256;6.456;2022-09-03T13:14:44;25.40;92.40
51765;DHT22;37835;53.256;6.456;2022-09-03T13:20:20;25.50;92.10
51765;DHT22;37835;53.256;6.456;2022-09-03T13:26:20;25.50;92.00
51765;DHT22;37835;53.256;6.456;2022-09-03T13:32:25;25.50;92.20
51765;DHT22;37835;53.256;6.456;2022-09-03T13:35:01;25.60;92.00
51765;DHT22;37835;53.256;6.456;2022-09-03T13:37:42;25.60;91.60
51765;DHT22;37835;53.256;6.456;2022-09-03T13:40:36;25.60;91.70
51765;DHT22;37835;53.256;6.456;2022-09-03T13:43:31;25.60;91.90
51765;DHT22;37835;53.256;6.456;2022-09-03T13:46:25;25.70;91.60
51765;DHT22;37835;53.256;6.456;2022-09-03T13:49:05;25.70;91.80
51765;DHT22;37835;53.256;6.456;2022-09-03T13:51:57;25.80;91.80
51765;DHT22;37835;53.256;6.456;2022-09-03T13:54:42;25.90;91.80
51765;DHT22;37835;53.256;6.456;2022-09-03T14:00:06;25.90;91.60
51765;DHT22;37835;53.256;6.456;2022-09-03T14:08:22;25.90;91.20
51765;DHT22;37835;53.256;6.456;2022-09-03T14:11:12;26.00;90.80
51765;DHT22;37835;53.256;6.456;2022-09-03T14:13:59;25.90;90.80
51765;DHT22;37835;53.256;6.456;2022-09-03T14:19:39;26.00;90.80
51765;DHT22;37835;53.256;6.456;2022-09-03T14:22:24;26.00;91.10
51765;DHT22;37835;53.256;6.456;2022-09-03T14:24:56;26.10;90.80
51765;DHT22;37835;53.256;6.456;2022-09-03T14:27:27;26.10;90.70
51765;DHT22;37835;53.256;6.456;2022-09-03T14:29:57;26.10;90.70
51765;DHT22;37835;53.256;6.456;2022-09-03T14:32:42;26.10;91.00
51765;DHT22;37835;53.256;6.456;2022-09-03T14:38:24;26.20;90.50
51765;DHT22;37835;53.256;6.456;2022-09-03T14:44:01;26.10;90.30
51765;DHT22;37835;53.256;6.456;2022-09-03T14:46:34;26.20;90.30
51765;DHT22;37835;53.256;6.456;2022-09-03T14:51:56;26.20;90.10
51765;DHT22;37835;53.256;6.456;2022-09-03T14:55:01;26.20;90.40
51765;DHT22;37835;53.256;6.456;2022-09-03T14:57:59;26.20;90.40
51765;DHT22;37835;53.256;6.456;2022-09-03T15:03:46;26.20;90.10
51765;DHT22;37835;53.256;6.456;2022-09-03T15:09:15;26.30;90.20
51765;DHT22;37835;53.256;6.456;2022-09-03T15:12:09;26.30;90.10
51765;DHT22;37835;53.256;6.456;2022-09-03T15:14:56;26.30;90.10
51765;DHT22;37835;53.256;6.456;2022-09-03T15:17:40;26.30;89.80
51765;DHT22;37835;53.256;6.456;2022-09-03T15:20:35;26.30;90.00
51765;DHT22;37835;53.256;6.456;2022-09-03T15:23:22;26.40;90.00
51765;DHT22;37835;53.256;6.456;2022-09-03T15:31:09;26.30;89.70
51765;DHT22;37835;53.256;6.456;2022-09-03T15:36:19;26.40;89.70
51765;DHT22;37835;53.256;6.456;2022-09-03T15:39:05;26.40;89.70
51765;DHT22;37835;53.256;6.456;2022-09-03T15:42:16;26.40;89.60
51765;DHT22;37835;53.256;6.456;2022-09-03T15:44:48;26.40;89.90
51765;DHT22;37835;53.256;6.456;2022-09-03T15:55:41;26.50;89.70
51765;DHT22;37835;53.256;6.456;2022-09-03T16:01:00;26.50;90.30
51765;DHT22;37835;53.256;6.456;2022-09-03T16:03:32;26.50;90.50
51765;DHT22;37835;53.256;6.456;2022-09-03T16:06:22;26.40;90.50
51765;DHT22;37835;53.256;6.456;2022-09-03T16:08:54;26.30;90.70
51765;DHT22;37835;53.256;6.456;2022-09-03T16:11:39;26.20;90.50
51765;DHT22;37835;53.256;6.456;2022-09-03T16:14:15;26.30;90.70
51765;DHT22;37835;53.256;6.456;2022-09-03T16:17:36;26.00;90.50
51765;DHT22;37835;53.256;6.456;2022-09-03T16:20:24;25.90;90.90
51765;DHT22;37835;53.256;6.456;2022-09-03T16:25:19;25.70;91.30
51765;DHT22;37835;53.256;6.456;2022-09-03T16:27:59;25.60;91.10
51765;DHT22;37835;53.256;6.456;2022-09-03T16:30:32;25.50;91.30
51765;DHT22;37835;53.256;6.456;2022-09-03T16:33:14;25.40;91.10
51765;DHT22;37835;53.256;6.456;2022-09-03T16:38:32;25.20;91.40
51765;DHT22;37835;53.256;6.456;2022-09-03T16:41:28;25.10;91.50
51765;DHT22;37835;53.256;6.456;2022-09-03T16:44:11;25.00;91.70
51765;DHT22;37835;53.256;6.456;2022-09-03T16:47:01;24.90;91.70
51765;DHT22;37835;53.256;6.456;2022-09-03T16:52:46;24.70;92.00
51765;DHT22;37835;53.256;6.456;2022-09-03T16:58:59;24.50;92.20
51765;DHT22;37835;53.256;6.456;2022-09-03T17:04:50;24.30;92.40
51765;DHT22;37835;53.256;6.456;2022-09-03T17:10:35;24.00;92.50
51765;DHT22;37835;53.256;6.456;2022-09-03T17:18:42;24.00;92.80
51765;DHT22;37835;53.256;6.456;2022-09-03T17:29:15;23.70;93.30
51765;DHT22;37835;53.256;6.456;2022-09-03T17:32:21;23.60;93.30
51765;DHT22;37835;53.256;6.456;2022-09-03T17:35:24;23.60;93.50
51765;DHT22;37835;53.256;6.456;2022-09-03T17:40:31;23.40;93.90
51765;DHT22;37835;53.256;6.456;2022-09-03T17:48:53;23.20;94.50
51765;DHT22;37835;53.256;6.456;2022-09-03T17:51:42;23.00;94.80
51765;DHT22;37835;53.256;6.456;2022-09-03T17:54:44;23.00;94.70
51765;DHT22;37835;53.256;6.456;2022-09-03T17:57:19;22.90;94.80
51765;DHT22;37835;53.256;6.456;2022-09-03T18:00:04;22.80;95.00
51765;DHT22;37835;53.256;6.456;2022-09-03T18:02:42;22.70;94.90
51765;DHT22;37835;53.256;6.456;2022-09-03T18:05:21;22.60;95.00
51765;DHT22;37835;53.256;6.456;2022-09-03T18:07:59;22.50;95.10
51765;DHT22;37835;53.256;6.456;2022-09-03T18:10:43;22.40;95.20
51765;DHT22;37835;53.256;6.456;2022-09-03T18:15:58;22.30;95.50
51765;DHT22;37835;53.256;6.456;2022-09-03T18:18:27;22.20;95.50
51765;DHT22;37835;53.256;6.456;2022-09-03T18:20:58;22.20;95.40
51765;DHT22;37835;53.256;6.456;2022-09-03T18:27:02;22.10;95.60
51765;DHT22;37835;53.256;6.456;2022-09-03T18:30:08;22.00;95.60
51765;DHT22;37835;53.256;6.456;2022-09-03T18:32:53;21.90;95.70
51765;DHT22;37835;53.256;6.456;2022-09-03T18:35:38;21.90;95.90
51765;DHT22;37835;53.256;6.456;2022-09-03T18:38:30;21.80;96.00
51765;DHT22;37835;53.256;6.456;2022-09-03T18:44:49;21.70;96.50
51765;DHT22;37835;53.256;6.456;2022-09-03T18:47:42;21.70;96.50
51765;DHT22;37835;53.256;6.456;2022-09-03T18:56:46;21.70;96.80
51765;DHT22;37835;53.256;6.456;2022-09-03T19:05:51;21.70;97.00
51765;DHT22;37835;53.256;6.456;2022-09-03T19:15:09;21.90;97.30
51765;DHT22;37835;53.256;6.456;2022-09-03T19:18:23;22.00;97.30
51765;DHT22;37835;53.256;6.456;2022-09-03T19:21:32;22.00;97.30
51765;DHT22;37835;53.256;6.456;2022-09-03T19:24:24;22.10;97.20
51765;DHT22;37835;53.256;6.456;2022-09-03T19:27:30;22.10;97.20
51765;DHT22;37835;53.256;6.456;2022-09-03T19:33:34;22.10;97.10
51765;DHT22;37835;53.256;6.456;2022-09-03T19:39:41;22.10;96.90
51765;DHT22;37835;53.256;6.456;2022-09-03T19:48:59;22.00;96.80
51765;DHT22;37835;53.256;6.456;2022-09-03T19:55:05;21.90;96.60
51765;DHT22;37835;53.256;6.456;2022-09-03T19:57:54;22.00;96.40
51765;DHT22;37835;53.256;6.456;2022-09-03T20:00:41;22.10;96.20
51765;DHT22;37835;53.256;6.456;2022-09-03T20:03:26;22.00;96.00
51765;DHT22;37835;53.256;6.456;2022-09-03T20:06:12;22.10;96.00
51765;DHT22;37835;53.256;6.456;2022-09-03T20:09:07;22.10;95.90
51765;DHT22;37835;53.256;6.456;2022-09-03T20:11:58;22.10;95.90
51765;DHT22;37835;53.256;6.456;2022-09-03T20:14:25;22.10;95.90
51765;DHT22;37835;53.256;6.456;2022-09-03T20:22:16;22.00;95.90
51765;DHT22;37835;53.256;6.456;2022-09-03T20:31:15;22.10;95.90
51765;DHT22;37835;53.256;6.456;2022-09-03T20:33:55;22.00;96.00
51765;DHT22;37835;53.256;6.456;2022-09-03T20:39:39;22.10;96.00
51765;DHT22;37835;53.256;6.456;2022-09-03T20:42:15;22.10;96.00